sensor_id;sensor_type;location;lat;lon;timestamp;pressure;altitude;pressure_sealevel;temperature
82297;BMP280;71899;51.992;8.648;2023-11-21T00:02:22;99638.13;;;9.31
82297;BMP280;71899;51.992;8.648;2023-11-21T00:04:48;99635.63;;;9.55
82297;BMP280;71899;51.992;8.648;2023-11-21T00:07:14;99624.34;;;9.79
82297;BMP280;71899;51.992;8.648;2023-11-21T00:09:40;99630.28;;;9.81
82297;BMP280;71899;51.992;8.648;2023-11-21T00:12:07;99634.38;;;9.98
82297;BMP280;71899;51.992;8.648;2023-11-21T00:14:38;99630.19;;;9.95
82297;BMP280;71899;51.992;8.648;2023-11-21T00:17:04;99635.09;;;10.00
82297;BMP280;71899;51.992;8.648;2023-11-21T00:19:30;99638.44;;;10.15
82297;BMP280;71899;51.992;8.648;2023-11-21T00:21:56;99637.91;;;9.97
82297;BMP280;71899;51.992;8.648;2023-11-21T00:24:23;99642.63;;;9.54
82297;BMP280;71899;51.992;8.648;2023-11-21T00:26:50;99649.69;;;9.39
82297;BMP280;71899;51.992;8.648;2023-11-21T00:29:17;99655.09;;;9.24
82297;BMP280;71899;51.992;8.648;2023-11-21T00:31:44;99660.09;;;8.87
82297;BMP280;71899;51.992;8.648;2023-11-21T00:34:12;99658.63;;;8.83
82297;BMP280;71899;51.992;8.648;2023-11-21T00:36:37;99663.56;;;8.88
82297;BMP280;71899;51.992;8.648;2023-11-21T00:39:03;99666.09;;;8.75
82297;BMP280;71899;51.992;8.648;2023-11-21T00:41:31;99660.03;;;8.75
82297;BMP280;71899;51.992;8.648;2023-11-21T00:43:57;99666.03;;;8.89
82297;BMP280;71899;51.992;8.648;2023-11-21T00:46:25;99658.66;;;8.96
82297;BMP280;71899;51.992;8.648;2023-11-21T00:48:52;99669.88;;;9.11
82297;BMP280;71899;51.992;8.648;2023-11-21T00:51:19;99667.19;;;9.25
82297;BMP280;71899;51.992;8.648;2023-11-21T00:53:47;99661.41;;;9.46
82297;BMP280;71899;51.992;8.648;2023-11-21T00:56:13;99670.28;;;9.57
82297;BMP280;71899;51.992;8.648;2023-11-21T00:58:39;99663.16;;;9.33
82297;BMP280;71899;51.992;8.648;2023-11-21T01:01:07;99653.91;;;9.55
82297;BMP280;71899;51.992;8.648;2023-11-21T01:03:33;99648.88;;;9.89
82297;BMP280;71899;51.992;8.648;2023-11-21T01:05:58;99660.06;;;10.17
82297;BMP280;71899;51.992;8.648;2023-11-21T01:08:24;99645.22;;;10.17
82297;BMP280;71899;51.992;8.648;2023-11-21T01:10:49;99649.50;;;10.06
82297;BMP280;71899;51.992;8.648;2023-11-21T01:13:15;99656.50;;;10.05
82297;BMP280;71899;51.992;8.648;2023-11-21T01:15:40;99664.22;;;9.81
82297;BMP280;71899;51.992;8.648;2023-11-21T01:18:07;99669.03;;;10.13
82297;BMP280;71899;51.992;8.648;2023-11-21T01:20:34;99659.34;;;10.02
82297;BMP280;71899;51.992;8.648;2023-11-21T01:22:59;99675.41;;;10.09
82297;BMP280;71899;51.992;8.648;2023-11-21T01:25:26;99680.56;;;10.23
82297;BMP280;71899;51.992;8.648;2023-11-21T01:27:52;99666.56;;;9.73
82297;BMP280;71899;51.992;8.648;2023-11-21T01:30:17;99671.44;;;9.78
82297;BMP280;71899;51.992;8.648;2023-11-21T01:32:43;99674.38;;;9.86
82297;BMP280;71899;51.992;8.648;2023-11-21T01:35:09;99690.25;;;9.83
82297;BMP280;71899;51.992;8.648;2023-11-21T01:37:36;99685.13;;;9.69
82297;BMP280;71899;51.992;8.648;2023-11-21T01:40:02;99666.75;;;9.83
82297;BMP280;71899;51.992;8.648;2023-11-21T01:42:28;99680.22;;;10.15
82297;BMP280;71899;51.992;8.648;2023-11-21T01:44:54;99683.69;;;10.15
82297;BMP280;71899;51.992;8.648;2023-11-21T01:47:20;99679.31;;;10.16
82297;BMP280;71899;51.992;8.648;2023-11-21T01:49:46;99668.63;;;10.19
82297;BMP280;71899;51.992;8.648;2023-11-21T01:52:12;99682.41;;;10.08
82297;BMP280;71899;51.992;8.648;2023-11-21T01:54:38;99679.25;;;10.03
82297;BMP280;71899;51.992;8.648;2023-11-21T01:57:05;99687.53;;;9.84
82297;BMP280;71899;51.992;8.648;2023-11-21T01:59:35;99690.66;;;9.77
82297;BMP280;71899;51.992;8.648;2023-11-21T02:02:07;99649.00;;;9.88
82297;BMP280;71899;51.992;8.648;2023-11-21T02:04:36;99660.88;;;9.92
82297;BMP280;71899;51.992;8.648;2023-11-21T02:07:03;99654.31;;;9.99
82297;BMP280;71899;51.992;8.648;2023-11-21T02:09:31;99657.03;;;9.98
82297;BMP280;71899;51.992;8.648;2023-11-21T02:11:58;99669.78;;;10.02
82297;BMP280;71899;51.992;8.648;2023-11-21T02:14:25;99678.34;;;9.66
82297;BMP280;71899;51.992;8.648;2023-11-21T02:16:52;99679.38;;;9.89
82297;BMP280;71899;51.992;8.648;2023-11-21T02:19:19;99689.50;;;9.93
82297;BMP280;71899;51.992;8.648;2023-11-21T02:21:51;99688.69;;;10.06
82297;BMP280;71899;51.992;8.648;2023-11-21T02:24:22;99690.09;;;9.46
82297;BMP280;71899;51.992;8.648;2023-11-21T02:26:48;99704.09;;;9.71
82297;BMP280;71899;51.992;8.648;2023-11-21T02:29:20;99707.69;;;9.70
82297;BMP280;71899;51.992;8.648;2023-11-21T02:31:54;99691.66;;;9.49
82297;BMP280;71899;51.992;8.648;2023-11-21T02:34:21;99721.09;;;9.51
82297;BMP280;71899;51.992;8.648;2023-11-21T02:36:47;99711.75;;;9.86
82297;BMP280;71899;51.992;8.648;2023-11-21T02:39:16;99712.19;;;10.06
82297;BMP280;71899;51.992;8.648;2023-11-21T02:41:43;99696.19;;;9.72
82297;BMP280;71899;51.992;8.648;2023-11-21T02:44:09;99717.09;;;9.45
82297;BMP280;71899;51.992;8.648;2023-11-21T02:46:35;99704.34;;;9.28
82297;BMP280;71899;51.992;8.648;2023-11-21T02:49:02;99713.56;;;8.80
82297;BMP280;71899;51.992;8.648;2023-11-21T02:51:28;99723.03;;;8.81
82297;BMP280;71899;51.992;8.648;2023-11-21T02:53:53;99733.44;;;8.81
82297;BMP280;71899;51.992;8.648;2023-11-21T02:56:19;99737.72;;;8.82
82297;BMP280;71899;51.992;8.648;2023-11-21T02:58:45;99714.69;;;8.76
82297;BMP280;71899;51.992;8.648;2023-11-21T03:01:10;99718.78;;;9.07
82297;BMP280;71899;51.992;8.648;2023-11-21T03:03:37;99732.06;;;9.56
82297;BMP280;71899;51.992;8.648;2023-11-21T03:06:06;99715.41;;;9.32
82297;BMP280;71899;51.992;8.648;2023-11-21T03:08:32;99717.91;;;9.73
82297;BMP280;71899;51.992;8.648;2023-11-21T03:10:58;99709.03;;;10.01
82297;BMP280;71899;51.992;8.648;2023-11-21T03:13:23;99713.34;;;10.14
82297;BMP280;71899;51.992;8.648;2023-11-21T03:15:48;99727.22;;;9.77
82297;BMP280;71899;51.992;8.648;2023-11-21T03:18:14;99730.88;;;9.87
82297;BMP280;71899;51.992;8.648;2023-11-21T03:20:39;99733.00;;;10.20
82297;BMP280;71899;51.992;8.648;2023-11-21T03:23:04;99717.41;;;10.31
82297;BMP280;71899;51.992;8.648;2023-11-21T03:25:30;99734.13;;;10.41
82297;BMP280;71899;51.992;8.648;2023-11-21T03:27:56;99713.53;;;10.36
82297;BMP280;71899;51.992;8.648;2023-11-21T03:30:22;99724.94;;;10.48
82297;BMP280;71899;51.992;8.648;2023-11-21T03:32:47;99735.78;;;10.55
82297;BMP280;71899;51.992;8.648;2023-11-21T03:35:13;99732.03;;;10.59
82297;BMP280;71899;51.992;8.648;2023-11-21T03:37:39;99736.63;;;10.55
82297;BMP280;71899;51.992;8.648;2023-11-21T03:40:07;99747.88;;;10.68
82297;BMP280;71899;51.992;8.648;2023-11-21T03:42:34;99748.59;;;10.70
82297;BMP280;71899;51.992;8.648;2023-11-21T03:45:00;99747.78;;;10.70
82297;BMP280;71899;51.992;8.648;2023-11-21T03:47:27;99746.72;;;10.72
82297;BMP280;71899;51.992;8.648;2023-11-21T03:49:53;99751.34;;;10.69
82297;BMP280;71899;51.992;8.648;2023-11-21T03:52:18;99757.19;;;10.60
82297;BMP280;71899;51.992;8.648;2023-11-21T03:54:43;99757.25;;;10.34
82297;BMP280;71899;51.992;8.648;2023-11-21T03:57:09;99759.41;;;10.53
82297;BMP280;71899;51.992;8.648;2023-11-21T03:59:35;99753.03;;;10.57
82297;BMP280;71899;51.992;8.648;2023-11-21T04:02:01;99753.56;;;10.62
82297;BMP280;71899;51.992;8.648;2023-11-21T04:04:26;99751.44;;;10.67
82297;BMP280;71899;51.992;8.648;2023-11-21T04:06:51;99766.25;;;10.79
82297;BMP280;71899;51.992;8.648;2023-11-21T04:09:17;99774.19;;;10.78
82297;BMP280;71899;51.992;8.648;2023-11-21T04:11:42;99782.34;;;10.86
82297;BMP280;71899;51.992;8.648;2023-11-21T04:14:10;99768.88;;;10.79
82297;BMP280;71899;51.992;8.648;2023-11-21T04:16:36;99774.56;;;10.73
82297;BMP280;71899;51.992;8.648;2023-11-21T04:19:01;99781.56;;;10.73
82297;BMP280;71899;51.992;8.648;2023-11-21T04:21:26;99777.34;;;10.70
82297;BMP280;71899;51.992;8.648;2023-11-21T04:23:51;99785.94;;;10.72
82297;BMP280;71899;51.992;8.648;2023-11-21T04:26:17;99787.00;;;10.70
82297;BMP280;71899;51.992;8.648;2023-11-21T04:28:42;99792.22;;;10.57
82297;BMP280;71899;51.992;8.648;2023-11-21T04:31:08;99796.00;;;10.53
82297;BMP280;71899;51.992;8.648;2023-11-21T04:33:33;99774.78;;;10.32
82297;BMP280;71899;51.992;8.648;2023-11-21T04:35:58;99798.63;;;10.40
82297;BMP280;71899;51.992;8.648;2023-11-21T04:38:24;99789.16;;;10.00
82297;BMP280;71899;51.992;8.648;2023-11-21T04:40:49;99798.63;;;9.88
82297;BMP280;71899;51.992;8.648;2023-11-21T04:43:15;99800.22;;;10.04
82297;BMP280;71899;51.992;8.648;2023-11-21T04:45:40;99787.59;;;10.10
82297;BMP280;71899;51.992;8.648;2023-11-21T04:48:07;99805.66;;;10.13
82297;BMP280;71899;51.992;8.648;2023-11-21T04:50:34;99791.13;;;9.96
82297;BMP280;71899;51.992;8.648;2023-11-21T04:52:59;99816.31;;;10.10
82297;BMP280;71899;51.992;8.648;2023-11-21T04:55:24;99815.84;;;10.18
82297;BMP280;71899;51.992;8.648;2023-11-21T04:57:53;99802.63;;;10.07
82297;BMP280;71899;51.992;8.648;2023-11-21T05:00:19;99815.59;;;10.08
82297;BMP280;71899;51.992;8.648;2023-11-21T05:02:45;99818.56;;;9.77
82297;BMP280;71899;51.992;8.648;2023-11-21T05:05:10;99806.50;;;9.62
82297;BMP280;71899;51.992;8.648;2023-11-21T05:07:36;99818.09;;;9.58
82297;BMP280;71899;51.992;8.648;2023-11-21T05:10:01;99818.09;;;9.58
82297;BMP280;71899;51.992;8.648;2023-11-21T05:12:31;99800.66;;;9.58
82297;BMP280;71899;51.992;8.648;2023-11-21T05:15:04;99808.19;;;9.36
82297;BMP280;71899;51.992;8.648;2023-11-21T05:17:33;99813.06;;;9.55
82297;BMP280;71899;51.992;8.648;2023-11-21T05:19:59;99817.59;;;9.65
82297;BMP280;71899;51.992;8.648;2023-11-21T05:22:28;99815.38;;;9.59
82297;BMP280;71899;51.992;8.648;2023-11-21T05:24:54;99797.53;;;9.39
82297;BMP280;71899;51.992;8.648;2023-11-21T05:27:19;99807.81;;;9.28
82297;BMP280;71899;51.992;8.648;2023-11-21T05:29:45;99810.16;;;9.59
82297;BMP280;71899;51.992;8.648;2023-11-21T05:32:10;99818.38;;;9.53
82297;BMP280;71899;51.992;8.648;2023-11-21T05:34:35;99825.22;;;9.68
82297;BMP280;71899;51.992;8.648;2023-11-21T05:37:01;99804.25;;;9.43
82297;BMP280;71899;51.992;8.648;2023-11-21T05:39:26;99807.06;;;9.40
82297;BMP280;71899;51.992;8.648;2023-11-21T05:41:53;99810.88;;;9.61
82297;BMP280;71899;51.992;8.648;2023-11-21T05:44:19;99820.00;;;9.41
82297;BMP280;71899;51.992;8.648;2023-11-21T05:46:44;99837.13;;;9.45
82297;BMP280;71899;51.992;8.648;2023-11-21T05:49:10;99841.47;;;9.59
82297;BMP280;71899;51.992;8.648;2023-11-21T05:51:36;99835.78;;;9.79
82297;BMP280;71899;51.992;8.648;2023-11-21T05:54:02;99830.63;;;9.65
82297;BMP280;71899;51.992;8.648;2023-11-21T05:56:27;99829.28;;;9.45
82297;BMP280;71899;51.992;8.648;2023-11-21T05:58:53;99847.34;;;9.22
82297;BMP280;71899;51.992;8.648;2023-11-21T06:01:19;99848.78;;;9.40
82297;BMP280;71899;51.992;8.648;2023-11-21T06:03:44;99846.50;;;9.62
82297;BMP280;71899;51.992;8.648;2023-11-21T06:06:10;99861.41;;;9.33
82297;BMP280;71899;51.992;8.648;2023-11-21T06:08:36;99862.19;;;9.48
82297;BMP280;71899;51.992;8.648;2023-11-21T06:11:01;99841.66;;;9.29
82297;BMP280;71899;51.992;8.648;2023-11-21T06:13:27;99866.97;;;9.41
82297;BMP280;71899;51.992;8.648;2023-11-21T06:15:53;99844.22;;;9.43
82297;BMP280;71899;51.992;8.648;2023-11-21T06:18:18;99872.16;;;9.56
82297;BMP280;71899;51.992;8.648;2023-11-21T06:20:46;99883.56;;;9.26
82297;BMP280;71899;51.992;8.648;2023-11-21T06:23:12;99867.59;;;9.04
82297;BMP280;71899;51.992;8.648;2023-11-21T06:25:37;99900.63;;;9.18
82297;BMP280;71899;51.992;8.648;2023-11-21T06:28:04;99889.94;;;9.49
82297;BMP280;71899;51.992;8.648;2023-11-21T06:30:30;99894.56;;;9.72
82297;BMP280;71899;51.992;8.648;2023-11-21T06:32:55;99881.50;;;9.72
82297;BMP280;71899;51.992;8.648;2023-11-21T06:35:21;99899.34;;;9.66
82297;BMP280;71899;51.992;8.648;2023-11-21T06:37:47;99888.59;;;9.29
82297;BMP280;71899;51.992;8.648;2023-11-21T06:40:13;99907.78;;;9.28
82297;BMP280;71899;51.992;8.648;2023-11-21T06:42:41;99918.88;;;9.18
82297;BMP280;71899;51.992;8.648;2023-11-21T06:45:07;99919.47;;;9.09
82297;BMP280;71899;51.992;8.648;2023-11-21T06:47:33;99922.91;;;9.23
82297;BMP280;71899;51.992;8.648;2023-11-21T06:49:58;99924.00;;;9.33
82297;BMP280;71899;51.992;8.648;2023-11-21T06:52:24;99933.06;;;9.69
82297;BMP280;71899;51.992;8.648;2023-11-21T06:54:49;99933.22;;;9.80
82297;BMP280;71899;51.992;8.648;2023-11-21T06:57:15;99939.72;;;9.87
82297;BMP280;71899;51.992;8.648;2023-11-21T06:59:40;99933.59;;;10.15
82297;BMP280;71899;51.992;8.648;2023-11-21T07:02:06;99938.16;;;10.38
82297;BMP280;71899;51.992;8.648;2023-11-21T07:04:32;99936.34;;;10.38
82297;BMP280;71899;51.992;8.648;2023-11-21T07:06:58;99949.25;;;10.41
82297;BMP280;71899;51.992;8.648;2023-11-21T07:09:23;99950.41;;;10.50
82297;BMP280;71899;51.992;8.648;2023-11-21T07:11:51;99936.34;;;10.38
82297;BMP280;71899;51.992;8.648;2023-11-21T07:14:17;99939.00;;;10.51
82297;BMP280;71899;51.992;8.648;2023-11-21T07:16:45;99941.09;;;10.46
82297;BMP280;71899;51.992;8.648;2023-11-21T07:19:10;99965.59;;;10.31
82297;BMP280;71899;51.992;8.648;2023-11-21T07:21:37;99954.63;;;10.26
82297;BMP280;71899;51.992;8.648;2023-11-21T07:24:05;99969.88;;;10.19
82297;BMP280;71899;51.992;8.648;2023-11-21T07:26:32;99972.19;;;10.10
82297;BMP280;71899;51.992;8.648;2023-11-21T07:28:59;99968.13;;;9.65
82297;BMP280;71899;51.992;8.648;2023-11-21T07:31:24;99958.59;;;9.64
82297;BMP280;71899;51.992;8.648;2023-11-21T07:33:50;99985.69;;;9.34
82297;BMP280;71899;51.992;8.648;2023-11-21T07:36:17;99990.72;;;9.23
82297;BMP280;71899;51.992;8.648;2023-11-21T07:38:49;99989.88;;;9.23
82297;BMP280;71899;51.992;8.648;2023-11-21T07:41:14;99984.44;;;9.12
82297;BMP280;71899;51.992;8.648;2023-11-21T07:43:41;99984.00;;;9.19
82297;BMP280;71899;51.992;8.648;2023-11-21T07:46:07;100002.06;;;9.22
82297;BMP280;71899;51.992;8.648;2023-11-21T07:48:33;100005.53;;;9.23
82297;BMP280;71899;51.992;8.648;2023-11-21T07:51:00;99997.41;;;9.27
82297;BMP280;71899;51.992;8.648;2023-11-21T07:53:26;100015.09;;;9.22
82297;BMP280;71899;51.992;8.648;2023-11-21T07:55:54;100018.72;;;9.06
82297;BMP280;71899;51.992;8.648;2023-11-21T07:58:20;100009.88;;;9.22
82297;BMP280;71899;51.992;8.648;2023-11-21T08:00:45;100001.88;;;9.11
82297;BMP280;71899;51.992;8.648;2023-11-21T08:03:13;100023.13;;;9.19
82297;BMP280;71899;51.992;8.648;2023-11-21T08:05:39;100019.00;;;9.15
82297;BMP280;71899;51.992;8.648;2023-11-21T08:08:04;99992.31;;;8.82
82297;BMP280;71899;51.992;8.648;2023-11-21T08:10:31;100023.75;;;9.09
82297;BMP280;71899;51.992;8.648;2023-11-21T08:20:44;100032.22;;;8.98
82297;BMP280;71899;51.992;8.648;2023-11-21T08:23:16;100038.44;;;8.95
82297;BMP280;71899;51.992;8.648;2023-11-21T08:25:44;100038.94;;;9.02
82297;BMP280;71899;51.992;8.648;2023-11-21T08:28:10;100035.06;;;9.23
82297;BMP280;71899;51.992;8.648;2023-11-21T08:30:35;100040.16;;;9.53
82297;BMP280;71899;51.992;8.648;2023-11-21T08:33:01;100059.47;;;9.65
82297;BMP280;71899;51.992;8.648;2023-11-21T08:35:28;100048.38;;;9.61
82297;BMP280;71899;51.992;8.648;2023-11-21T08:37:53;100044.91;;;9.32
82297;BMP280;71899;51.992;8.648;2023-11-21T08:40:20;100052.94;;;9.29
82297;BMP280;71899;51.992;8.648;2023-11-21T08:42:46;100061.03;;;9.53
82297;BMP280;71899;51.992;8.648;2023-11-21T08:45:12;100068.28;;;9.20
82297;BMP280;71899;51.992;8.648;2023-11-21T08:47:38;100076.00;;;9.21
82297;BMP280;71899;51.992;8.648;2023-11-21T08:50:05;100079.94;;;9.28
82297;BMP280;71899;51.992;8.648;2023-11-21T08:52:33;100087.31;;;9.36
82297;BMP280;71899;51.992;8.648;2023-11-21T08:54:59;100081.47;;;9.61
82297;BMP280;71899;51.992;8.648;2023-11-21T08:57:31;100080.50;;;9.33
82297;BMP280;71899;51.992;8.648;2023-11-21T08:59:57;100096.91;;;9.50
82297;BMP280;71899;51.992;8.648;2023-11-21T09:05:14;100102.06;;;9.93
82297;BMP280;71899;51.992;8.648;2023-11-21T09:07:41;100105.72;;;9.77
82297;BMP280;71899;51.992;8.648;2023-11-21T09:10:07;100104.69;;;9.79
82297;BMP280;71899;51.992;8.648;2023-11-21T09:12:35;100108.41;;;9.89
82297;BMP280;71899;51.992;8.648;2023-11-21T09:15:07;100109.72;;;9.82
82297;BMP280;71899;51.992;8.648;2023-11-21T09:17:35;100117.81;;;9.78
82297;BMP280;71899;51.992;8.648;2023-11-21T09:20:00;100110.38;;;9.86
82297;BMP280;71899;51.992;8.648;2023-11-21T09:22:26;100119.69;;;9.90
82297;BMP280;71899;51.992;8.648;2023-11-21T09:24:52;100120.41;;;9.92
82297;BMP280;71899;51.992;8.648;2023-11-21T09:27:17;100129.28;;;9.89
82297;BMP280;71899;51.992;8.648;2023-11-21T09:29:43;100132.09;;;10.15
82297;BMP280;71899;51.992;8.648;2023-11-21T09:32:08;100134.34;;;10.21
82297;BMP280;71899;51.992;8.648;2023-11-21T09:34:38;100133.69;;;10.17
82297;BMP280;71899;51.992;8.648;2023-11-21T09:37:04;100133.13;;;10.12
82297;BMP280;71899;51.992;8.648;2023-11-21T09:39:31;100139.75;;;10.18
82297;BMP280;71899;51.992;8.648;2023-11-21T09:42:06;100138.63;;;10.08
82297;BMP280;71899;51.992;8.648;2023-11-21T09:47:14;100148.41;;;9.90
82297;BMP280;71899;51.992;8.648;2023-11-21T09:49:43;100151.88;;;9.90
82297;BMP280;71899;51.992;8.648;2023-11-21T09:52:21;100158.28;;;9.99
82297;BMP280;71899;51.992;8.648;2023-11-21T09:54:49;100152.59;;;9.92
82297;BMP280;71899;51.992;8.648;2023-11-21T09:57:15;100160.63;;;10.04
82297;BMP280;71899;51.992;8.648;2023-11-21T09:59:42;100164.28;;;9.87
82297;BMP280;71899;51.992;8.648;2023-11-21T10:02:08;100150.34;;;9.58
82297;BMP280;71899;51.992;8.648;2023-11-21T10:04:38;100159.78;;;9.75
82297;BMP280;71899;51.992;8.648;2023-11-21T10:07:04;100176.22;;;9.91
82297;BMP280;71899;51.992;8.648;2023-11-21T10:09:35;100167.81;;;10.00
82297;BMP280;71899;51.992;8.648;2023-11-21T10:12:02;100187.13;;;10.12
82297;BMP280;71899;51.992;8.648;2023-11-21T10:14:29;100184.13;;;10.04
82297;BMP280;71899;51.992;8.648;2023-11-21T10:16:56;100189.16;;;10.07
82297;BMP280;71899;51.992;8.648;2023-11-21T10:19:22;100190.78;;;10.37
82297;BMP280;71899;51.992;8.648;2023-11-21T10:21:49;100199.53;;;9.94
82297;BMP280;71899;51.992;8.648;2023-11-21T10:24:14;100193.91;;;9.72
82297;BMP280;71899;51.992;8.648;2023-11-21T10:26:41;100212.47;;;9.95
82297;BMP280;71899;51.992;8.648;2023-11-21T10:29:07;100209.41;;;10.03
82297;BMP280;71899;51.992;8.648;2023-11-21T10:31:33;100203.19;;;10.06
82297;BMP280;71899;51.992;8.648;2023-11-21T10:34:13;100210.13;;;9.77
82297;BMP280;71899;51.992;8.648;2023-11-21T10:36:39;100208.44;;;9.62
82297;BMP280;71899;51.992;8.648;2023-11-21T10:39:04;100198.84;;;9.62
82297;BMP280;71899;51.992;8.648;2023-11-21T10:41:29;100216.22;;;9.91
82297;BMP280;71899;51.992;8.648;2023-11-21T10:43:55;100212.88;;;10.04
82297;BMP280;71899;51.992;8.648;2023-11-21T10:46:22;100210.59;;;9.69
82297;BMP280;71899;51.992;8.648;2023-11-21T10:48:54;100224.34;;;9.57
82297;BMP280;71899;51.992;8.648;2023-11-21T10:51:22;100216.69;;;9.54
82297;BMP280;71899;51.992;8.648;2023-11-21T10:53:51;100212.81;;;9.61
82297;BMP280;71899;51.992;8.648;2023-11-21T10:56:18;100222.88;;;9.67
82297;BMP280;71899;51.992;8.648;2023-11-21T10:58:45;100224.38;;;9.71
82297;BMP280;71899;51.992;8.648;2023-11-21T11:01:11;100229.13;;;9.35
82297;BMP280;71899;51.992;8.648;2023-11-21T11:03:39;100228.25;;;9.50
82297;BMP280;71899;51.992;8.648;2023-11-21T11:06:06;100222.75;;;9.55
82297;BMP280;71899;51.992;8.648;2023-11-21T11:08:39;100238.19;;;9.43
82297;BMP280;71899;51.992;8.648;2023-11-21T11:11:05;100221.34;;;9.49
82297;BMP280;71899;51.992;8.648;2023-11-21T11:13:31;100240.16;;;9.70
82297;BMP280;71899;51.992;8.648;2023-11-21T11:16:00;100250.75;;;9.67
82297;BMP280;71899;51.992;8.648;2023-11-21T11:18:32;100259.41;;;9.67
82297;BMP280;71899;51.992;8.648;2023-11-21T11:21:21;100242.25;;;9.63
82297;BMP280;71899;51.992;8.648;2023-11-21T11:24:05;100256.59;;;9.86
82297;BMP280;71899;51.992;8.648;2023-11-21T11:29:39;100268.34;;;9.93
82297;BMP280;71899;51.992;8.648;2023-11-21T11:35:26;100293.09;;;9.11
82297;BMP280;71899;51.992;8.648;2023-11-21T11:37:54;100283.75;;;9.07
82297;BMP280;71899;51.992;8.648;2023-11-21T11:40:21;100292.69;;;9.34
82297;BMP280;71899;51.992;8.648;2023-11-21T11:42:57;100292.50;;;9.37
82297;BMP280;71899;51.992;8.648;2023-11-21T11:45:25;100302.50;;;9.13
82297;BMP280;71899;51.992;8.648;2023-11-21T11:47:57;100294.63;;;9.15
82297;BMP280;71899;51.992;8.648;2023-11-21T11:50:22;100289.22;;;9.33
82297;BMP280;71899;51.992;8.648;2023-11-21T11:52:49;100285.44;;;9.23
82297;BMP280;71899;51.992;8.648;2023-11-21T11:55:18;100292.19;;;9.12
82297;BMP280;71899;51.992;8.648;2023-11-21T11:57:49;100293.53;;;9.64
82297;BMP280;71899;51.992;8.648;2023-11-21T12:00:21;100292.72;;;9.78
82297;BMP280;71899;51.992;8.648;2023-11-21T12:02:54;100291.47;;;9.55
82297;BMP280;71899;51.992;8.648;2023-11-21T12:05:20;100299.63;;;9.49
82297;BMP280;71899;51.992;8.648;2023-11-21T12:07:53;100303.78;;;9.22
82297;BMP280;71899;51.992;8.648;2023-11-21T12:10:21;100307.22;;;9.07
82297;BMP280;71899;51.992;8.648;2023-11-21T12:12:51;100305.22;;;8.96
82297;BMP280;71899;51.992;8.648;2023-11-21T12:15:18;100308.50;;;9.00
82297;BMP280;71899;51.992;8.648;2023-11-21T12:17:44;100322.19;;;9.03
82297;BMP280;71899;51.992;8.648;2023-11-21T12:20:11;100328.09;;;9.07
82297;BMP280;71899;51.992;8.648;2023-11-21T12:22:42;100334.72;;;8.96
82297;BMP280;71899;51.992;8.648;2023-11-21T12:25:08;100333.31;;;9.07
82297;BMP280;71899;51.992;8.648;2023-11-21T12:27:33;100334.06;;;9.40
82297;BMP280;71899;51.992;8.648;2023-11-21T12:29:58;100345.84;;;9.00
82297;BMP280;71899;51.992;8.648;2023-11-21T12:32:25;100355.53;;;8.98
82297;BMP280;71899;51.992;8.648;2023-11-21T12:34:51;100352.19;;;8.79
82297;BMP280;71899;51.992;8.648;2023-11-21T12:37:16;100355.19;;;8.38
82297;BMP280;71899;51.992;8.648;2023-11-21T12:39:42;100367.16;;;8.75
82297;BMP280;71899;51.992;8.648;2023-11-21T12:42:07;100354.34;;;8.71
82297;BMP280;71899;51.992;8.648;2023-11-21T12:44:33;100351.75;;;8.71
82297;BMP280;71899;51.992;8.648;2023-11-21T12:46:59;100359.69;;;8.69
82297;BMP280;71899;51.992;8.648;2023-11-21T12:49:24;100354.19;;;8.24
82297;BMP280;71899;51.992;8.648;2023-11-21T12:51:50;100367.63;;;8.33
82297;BMP280;71899;51.992;8.648;2023-11-21T12:54:15;100367.81;;;8.63
82297;BMP280;71899;51.992;8.648;2023-11-21T12:56:45;100363.97;;;8.53
82297;BMP280;71899;51.992;8.648;2023-11-21T12:59:12;100366.19;;;8.61
82297;BMP280;71899;51.992;8.648;2023-11-21T13:01:42;100368.91;;;8.75
82297;BMP280;71899;51.992;8.648;2023-11-21T13:04:07;100365.69;;;8.87
82297;BMP280;71899;51.992;8.648;2023-11-21T13:06:36;100369.44;;;8.81
82297;BMP280;71899;51.992;8.648;2023-11-21T13:09:07;100377.53;;;8.77
82297;BMP280;71899;51.992;8.648;2023-11-21T13:11:36;100381.34;;;9.03
82297;BMP280;71899;51.992;8.648;2023-11-21T13:14:02;100384.78;;;9.03
82297;BMP280;71899;51.992;8.648;2023-11-21T13:16:28;100374.72;;;9.13
82297;BMP280;71899;51.992;8.648;2023-11-21T13:18:55;100389.19;;;9.18
82297;BMP280;71899;51.992;8.648;2023-11-21T13:21:20;100402.28;;;9.01
82297;BMP280;71899;51.992;8.648;2023-11-21T13:23:47;100387.22;;;8.90
82297;BMP280;71899;51.992;8.648;2023-11-21T13:26:13;100403.03;;;8.87
82297;BMP280;71899;51.992;8.648;2023-11-21T13:28:40;100409.97;;;9.20
82297;BMP280;71899;51.992;8.648;2023-11-21T13:31:11;100410.94;;;9.34
82297;BMP280;71899;51.992;8.648;2023-11-21T13:33:47;100423.97;;;9.34
82297;BMP280;71899;51.992;8.648;2023-11-21T13:36:20;100414.13;;;9.24
82297;BMP280;71899;51.992;8.648;2023-11-21T13:38:49;100427.28;;;9.05
82297;BMP280;71899;51.992;8.648;2023-11-21T13:41:15;100433.28;;;8.90
82297;BMP280;71899;51.992;8.648;2023-11-21T13:43:40;100435.00;;;9.07
82297;BMP280;71899;51.992;8.648;2023-11-21T13:46:09;100441.41;;;9.01
82297;BMP280;71899;51.992;8.648;2023-11-21T13:48:46;100445.34;;;8.75
82297;BMP280;71899;51.992;8.648;2023-11-21T13:51:24;100450.66;;;9.07
82297;BMP280;71899;51.992;8.648;2023-11-21T13:54:13;100454.22;;;9.21
82297;BMP280;71899;51.992;8.648;2023-11-21T13:56:38;100452.00;;;9.31
82297;BMP280;71899;51.992;8.648;2023-11-21T13:59:05;100454.31;;;9.20
82297;BMP280;71899;51.992;8.648;2023-11-21T14:01:50;100464.13;;;9.48
82297;BMP280;71899;51.992;8.648;2023-11-21T14:04:21;100469.75;;;9.40
82297;BMP280;71899;51.992;8.648;2023-11-21T14:07:01;100468.47;;;9.31
82297;BMP280;71899;51.992;8.648;2023-11-21T14:09:39;100474.06;;;9.41
82297;BMP280;71899;51.992;8.648;2023-11-21T14:12:09;100480.94;;;9.42
82297;BMP280;71899;51.992;8.648;2023-11-21T14:14:35;100477.59;;;9.56
82297;BMP280;71899;51.992;8.648;2023-11-21T14:17:00;100492.00;;;9.14
82297;BMP280;71899;51.992;8.648;2023-11-21T14:19:31;100500.72;;;9.13
82297;BMP280;71899;51.992;8.648;2023-11-21T14:21:57;100500.44;;;9.35
82297;BMP280;71899;51.992;8.648;2023-11-21T14:24:23;100498.09;;;9.30
82297;BMP280;71899;51.992;8.648;2023-11-21T14:26:49;100506.22;;;9.09
82297;BMP280;71899;51.992;8.648;2023-11-21T14:29:17;100507.75;;;9.13
82297;BMP280;71899;51.992;8.648;2023-11-21T14:31:45;100509.22;;;8.50